[2025-02-03 00:00:00, 2025-02-03 23:59:59] previous next
| time | temperature | air pressure | humidity | solar radiation | wind speed |
|---|---|---|---|---|---|
| 2025-02-03 08:11:47 | -1.5 | 1018.8 | 99.0 | 16.4 | 0.0 |
| 2025-02-03 08:31:46 | -1.9 | 1019.5 | 99.0 | 21.4 | 0.0 |
| 2025-02-03 08:51:49 | -0.1 | 1019.1 | 99.0 | 25.5 | 0.0 |
| 2025-02-03 09:11:46 | 1.2 | 1019.5 | 99.0 | 30.8 | 0.0 |
| 2025-02-03 09:31:47 | 3.5 | 1019.5 | 99.0 | 38.8 | 1.0 |
| 2025-02-03 09:51:46 | 4.1 | 1019.5 | 95.0 | 39.4 | 0.1 |
| 2025-02-03 10:11:46 | 5.0 | 1019.5 | 93.0 | 38.7 | 0.6 |
| 2025-02-03 10:31:48 | 4.6 | 1019.5 | 93.0 | 40.6 | 0.1 |
| 2025-02-03 10:51:47 | 5.5 | 1019.8 | 94.0 | 43.2 | 0.0 |
| 2025-02-03 11:11:47 | 6.5 | 1019.8 | 82.0 | 89.9 | 0.1 |
| 2025-02-03 11:31:47 | 7.1 | 1019.5 | 78.0 | 129.3 | 2.0 |
| 2025-02-03 11:51:47 | 7.4 | 1019.5 | 77.0 | 172.9 | 0.6 |
| 2025-02-03 12:11:46 | 8.0 | 1019.1 | 74.0 | 214.5 | 1.3 |
| 2025-02-03 12:31:46 | 8.1 | 1019.1 | 75.0 | 218.9 | 0.0 |
| 2025-02-03 12:51:46 | 8.2 | 1018.8 | 74.0 | 237.4 | 1.7 |
| 2025-02-03 13:11:47 | 8.7 | 1019.1 | 72.0 | 227.4 | 0.7 |
| 2025-02-03 13:31:47 | 8.9 | 1018.8 | 70.0 | 229.7 | 1.1 |
| 2025-02-03 13:51:47 | 9.2 | 1018.5 | 71.0 | 215.8 | 1.1 |
| 2025-02-03 14:11:46 | 9.6 | 1018.1 | 70.0 | 204.7 | 0.6 |
| 2025-02-03 14:31:47 | 9.6 | 1018.1 | 70.0 | 186.4 | 1.1 |
| 2025-02-03 14:51:46 | 9.0 | 1017.8 | 70.0 | 162.3 | 1.4 |
CSV export: /station/IWELLEN5/data?period=20250203T000000/20250203T235959&format=csv&tz=GMT